sensor_id;sensor_type;location;lat;lon;timestamp;P1;durP1;ratioP1;P2;durP2;ratioP2
19645;SDS011;9971;52.446;13.452;2023-02-03T00:01:35;1.30;;;1.20;;
19645;SDS011;9971;52.446;13.452;2023-02-03T00:06:38;1.72;;;1.62;;
19645;SDS011;9971;52.446;13.452;2023-02-03T00:11:40;3.63;;;1.97;;
19645;SDS011;9971;52.446;13.452;2023-02-03T00:16:42;2.37;;;1.82;;
19645;SDS011;9971;52.446;13.452;2023-02-03T00:21:45;1.72;;;1.50;;
19645;SDS011;9971;52.446;13.452;2023-02-03T00:26:47;2.52;;;1.80;;
19645;SDS011;9971;52.446;13.452;2023-02-03T00:31:50;3.80;;;2.13;;
19645;SDS011;9971;52.446;13.452;2023-02-03T00:36:52;3.33;;;2.30;;
19645;SDS011;9971;52.446;13.452;2023-02-03T00:41:54;3.55;;;2.22;;
19645;SDS011;9971;52.446;13.452;2023-02-03T00:46:57;3.05;;;1.82;;
19645;SDS011;9971;52.446;13.452;2023-02-03T00:51:59;4.50;;;2.33;;
19645;SDS011;9971;52.446;13.452;2023-02-03T00:57:02;6.10;;;2.87;;
19645;SDS011;9971;52.446;13.452;2023-02-03T01:02:04;2.77;;;1.87;;
19645;SDS011;9971;52.446;13.452;2023-02-03T01:07:07;5.70;;;2.60;;
19645;SDS011;9971;52.446;13.452;2023-02-03T01:12:09;5.90;;;2.70;;
19645;SDS011;9971;52.446;13.452;2023-02-03T01:17:12;4.22;;;2.75;;
19645;SDS011;9971;52.446;13.452;2023-02-03T01:22:14;4.40;;;2.70;;
19645;SDS011;9971;52.446;13.452;2023-02-03T01:27:17;4.73;;;2.40;;
19645;SDS011;9971;52.446;13.452;2023-02-03T01:32:19;3.50;;;2.08;;
19645;SDS011;9971;52.446;13.452;2023-02-03T01:37:21;3.25;;;2.10;;
19645;SDS011;9971;52.446;13.452;2023-02-03T01:42:24;3.52;;;2.42;;
19645;SDS011;9971;52.446;13.452;2023-02-03T01:47:28;5.00;;;2.45;;
19645;SDS011;9971;52.446;13.452;2023-02-03T01:52:29;5.00;;;2.30;;
19645;SDS011;9971;52.446;13.452;2023-02-03T01:57:32;2.33;;;1.93;;
19645;SDS011;9971;52.446;13.452;2023-02-03T02:02:33;2.47;;;1.80;;
19645;SDS011;9971;52.446;13.452;2023-02-03T02:07:35;2.67;;;1.52;;
19645;SDS011;9971;52.446;13.452;2023-02-03T02:12:37;1.67;;;1.50;;
19645;SDS011;9971;52.446;13.452;2023-02-03T02:17:47;2.33;;;2.00;;
19645;SDS011;9971;52.446;13.452;2023-02-03T02:23:06;2.43;;;1.93;;
19645;SDS011;9971;52.446;13.452;2023-02-03T02:33:44;1.60;;;1.30;;
19645;SDS011;9971;52.446;13.452;2023-02-03T02:38:48;2.20;;;1.37;;
19645;SDS011;9971;52.446;13.452;2023-02-03T02:43:54;1.20;;;1.10;;
19645;SDS011;9971;52.446;13.452;2023-02-03T02:48:56;0.80;;;0.80;;
19645;SDS011;9971;52.446;13.452;2023-02-03T02:53:59;1.03;;;0.80;;
19645;SDS011;9971;52.446;13.452;2023-02-03T02:59:00;1.07;;;0.93;;
19645;SDS011;9971;52.446;13.452;2023-02-03T03:04:04;0.90;;;0.80;;
19645;SDS011;9971;52.446;13.452;2023-02-03T03:09:05;1.02;;;0.62;;
19645;SDS011;9971;52.446;13.452;2023-02-03T03:14:06;0.63;;;0.40;;
19645;SDS011;9971;52.446;13.452;2023-02-03T03:19:10;0.20;;;0.20;;
19645;SDS011;9971;52.446;13.452;2023-02-03T03:24:12;0.08;;;0.08;;
19645;SDS011;9971;52.446;13.452;2023-02-03T03:29:15;0.40;;;0.40;;
19645;SDS011;9971;52.446;13.452;2023-02-03T03:34:15;0.10;;;0.10;;
19645;SDS011;9971;52.446;13.452;2023-02-03T03:39:23;0.30;;;0.30;;
19645;SDS011;9971;52.446;13.452;2023-02-03T03:44:28;0.30;;;0.30;;
19645;SDS011;9971;52.446;13.452;2023-02-03T03:49:28;0.40;;;0.40;;
19645;SDS011;9971;52.446;13.452;2023-02-03T03:54:30;0.23;;;0.20;;
19645;SDS011;9971;52.446;13.452;2023-02-03T03:59:33;0.23;;;0.23;;
19645;SDS011;9971;52.446;13.452;2023-02-03T04:04:35;0.33;;;0.33;;
19645;SDS011;9971;52.446;13.452;2023-02-03T04:09:36;0.20;;;0.20;;
19645;SDS011;9971;52.446;13.452;2023-02-03T04:14:39;0.30;;;0.30;;
19645;SDS011;9971;52.446;13.452;2023-02-03T04:19:41;0.10;;;0.10;;
19645;SDS011;9971;52.446;13.452;2023-02-03T04:24:43;0.40;;;0.40;;
19645;SDS011;9971;52.446;13.452;2023-02-03T04:29:46;0.68;;;0.33;;
19645;SDS011;9971;52.446;13.452;2023-02-03T04:34:48;0.28;;;0.28;;
19645;SDS011;9971;52.446;13.452;2023-02-03T04:39:51;0.50;;;0.50;;
19645;SDS011;9971;52.446;13.452;2023-02-03T04:44:52;0.50;;;0.50;;
19645;SDS011;9971;52.446;13.452;2023-02-03T04:49:55;0.72;;;0.72;;
19645;SDS011;9971;52.446;13.452;2023-02-03T04:54:57;1.00;;;1.00;;
19645;SDS011;9971;52.446;13.452;2023-02-03T05:00:00;0.88;;;0.88;;
19645;SDS011;9971;52.446;13.452;2023-02-03T05:05:02;1.10;;;1.00;;
19645;SDS011;9971;52.446;13.452;2023-02-03T05:10:05;0.95;;;0.95;;
19645;SDS011;9971;52.446;13.452;2023-02-03T05:15:08;1.80;;;1.70;;
19645;SDS011;9971;52.446;13.452;2023-02-03T05:20:11;1.72;;;1.62;;
19645;SDS011;9971;52.446;13.452;2023-02-03T05:25:13;1.83;;;1.73;;
19645;SDS011;9971;52.446;13.452;2023-02-03T05:30:15;1.60;;;1.50;;
19645;SDS011;9971;52.446;13.452;2023-02-03T05:35:18;2.47;;;2.27;;
19645;SDS011;9971;52.446;13.452;2023-02-03T05:40:20;2.00;;;1.85;;
19645;SDS011;9971;52.446;13.452;2023-02-03T05:45:28;3.17;;;2.87;;
19645;SDS011;9971;52.446;13.452;2023-02-03T05:50:31;3.45;;;3.22;;
19645;SDS011;9971;52.446;13.452;2023-02-03T05:55:33;3.77;;;3.43;;
19645;SDS011;9971;52.446;13.452;2023-02-03T06:00:35;3.63;;;3.23;;
19645;SDS011;9971;52.446;13.452;2023-02-03T06:05:37;3.87;;;3.58;;
19645;SDS011;9971;52.446;13.452;2023-02-03T06:10:40;5.00;;;4.13;;
19645;SDS011;9971;52.446;13.452;2023-02-03T06:15:42;5.15;;;4.65;;
19645;SDS011;9971;52.446;13.452;2023-02-03T06:20:45;4.70;;;4.30;;
19645;SDS011;9971;52.446;13.452;2023-02-03T06:25:47;3.90;;;3.50;;
19645;SDS011;9971;52.446;13.452;2023-02-03T06:30:49;4.30;;;3.90;;
19645;SDS011;9971;52.446;13.452;2023-02-03T06:35:52;4.93;;;4.53;;
19645;SDS011;9971;52.446;13.452;2023-02-03T06:40:53;4.93;;;4.53;;
19645;SDS011;9971;52.446;13.452;2023-02-03T06:45:55;4.30;;;3.75;;
19645;SDS011;9971;52.446;13.452;2023-02-03T06:50:58;4.85;;;3.90;;
19645;SDS011;9971;52.446;13.452;2023-02-03T06:56:00;4.87;;;4.25;;
19645;SDS011;9971;52.446;13.452;2023-02-03T07:01:02;4.22;;;3.80;;
19645;SDS011;9971;52.446;13.452;2023-02-03T07:06:05;3.27;;;2.98;;
19645;SDS011;9971;52.446;13.452;2023-02-03T07:11:07;3.67;;;3.30;;
19645;SDS011;9971;52.446;13.452;2023-02-03T07:16:09;4.20;;;3.63;;
19645;SDS011;9971;52.446;13.452;2023-02-03T07:21:12;4.20;;;3.80;;
19645;SDS011;9971;52.446;13.452;2023-02-03T07:26:15;5.33;;;4.20;;
19645;SDS011;9971;52.446;13.452;2023-02-03T07:31:16;4.37;;;3.90;;
19645;SDS011;9971;52.446;13.452;2023-02-03T07:36:18;4.83;;;3.93;;
19645;SDS011;9971;52.446;13.452;2023-02-03T07:41:21;3.83;;;3.12;;
19645;SDS011;9971;52.446;13.452;2023-02-03T07:46:23;5.20;;;3.43;;
19645;SDS011;9971;52.446;13.452;2023-02-03T07:51:25;4.73;;;3.40;;
19645;SDS011;9971;52.446;13.452;2023-02-03T07:56:28;3.02;;;2.70;;
19645;SDS011;9971;52.446;13.452;2023-02-03T08:01:30;3.75;;;3.35;;
19645;SDS011;9971;52.446;13.452;2023-02-03T08:06:32;3.67;;;3.35;;
19645;SDS011;9971;52.446;13.452;2023-02-03T08:11:34;4.23;;;2.67;;
19645;SDS011;9971;52.446;13.452;2023-02-03T08:16:37;2.98;;;2.75;;
19645;SDS011;9971;52.446;13.452;2023-02-03T08:21:39;2.85;;;2.42;;
19645;SDS011;9971;52.446;13.452;2023-02-03T08:26:42;2.87;;;2.08;;
19645;SDS011;9971;52.446;13.452;2023-02-03T08:31:44;2.77;;;2.37;;
19645;SDS011;9971;52.446;13.452;2023-02-03T08:36:47;3.47;;;2.33;;
19645;SDS011;9971;52.446;13.452;2023-02-03T08:41:49;2.10;;;1.90;;
19645;SDS011;9971;52.446;13.452;2023-02-03T08:46:52;1.85;;;1.75;;
19645;SDS011;9971;52.446;13.452;2023-02-03T08:51:54;1.67;;;1.57;;
19645;SDS011;9971;52.446;13.452;2023-02-03T08:56:56;1.60;;;1.50;;
19645;SDS011;9971;52.446;13.452;2023-02-03T09:01:58;3.00;;;1.87;;
19645;SDS011;9971;52.446;13.452;2023-02-03T09:07:01;1.62;;;1.52;;
19645;SDS011;9971;52.446;13.452;2023-02-03T09:12:04;1.57;;;1.27;;
19645;SDS011;9971;52.446;13.452;2023-02-03T09:17:05;1.73;;;1.57;;
19645;SDS011;9971;52.446;13.452;2023-02-03T09:22:07;1.75;;;1.40;;
19645;SDS011;9971;52.446;13.452;2023-02-03T09:27:09;1.40;;;1.30;;
19645;SDS011;9971;52.446;13.452;2023-02-03T09:32:11;1.35;;;1.17;;
19645;SDS011;9971;52.446;13.452;2023-02-03T09:37:14;1.47;;;1.33;;
19645;SDS011;9971;52.446;13.452;2023-02-03T09:42:26;1.32;;;1.22;;
19645;SDS011;9971;52.446;13.452;2023-02-03T09:47:44;1.40;;;1.30;;
19645;SDS011;9971;52.446;13.452;2023-02-03T09:52:46;1.00;;;1.00;;
19645;SDS011;9971;52.446;13.452;2023-02-03T09:57:51;1.50;;;1.40;;
19645;SDS011;9971;52.446;13.452;2023-02-03T10:02:54;2.05;;;1.10;;
19645;SDS011;9971;52.446;13.452;2023-02-03T10:08:01;1.67;;;1.10;;
19645;SDS011;9971;52.446;13.452;2023-02-03T10:13:04;1.23;;;1.13;;
19645;SDS011;9971;52.446;13.452;2023-02-03T10:18:12;1.20;;;1.10;;
19645;SDS011;9971;52.446;13.452;2023-02-03T10:23:14;1.90;;;1.32;;
19645;SDS011;9971;52.446;13.452;2023-02-03T10:28:18;1.30;;;1.20;;
19645;SDS011;9971;52.446;13.452;2023-02-03T10:33:19;1.23;;;1.10;;
19645;SDS011;9971;52.446;13.452;2023-02-03T10:38:29;1.80;;;1.27;;
19645;SDS011;9971;52.446;13.452;2023-02-03T10:43:27;2.08;;;1.32;;
19645;SDS011;9971;52.446;13.452;2023-02-03T10:48:34;1.43;;;1.00;;
19645;SDS011;9971;52.446;13.452;2023-02-03T10:53:37;2.45;;;1.35;;
19645;SDS011;9971;52.446;13.452;2023-02-03T10:58:45;3.30;;;1.05;;
19645;SDS011;9971;52.446;13.452;2023-02-03T11:03:42;4.10;;;1.40;;
19645;SDS011;9971;52.446;13.452;2023-02-03T11:09:00;2.60;;;1.12;;
19645;SDS011;9971;52.446;13.452;2023-02-03T11:14:10;1.80;;;1.17;;
19645;SDS011;9971;52.446;13.452;2023-02-03T11:19:14;3.90;;;1.33;;
19645;SDS011;9971;52.446;13.452;2023-02-03T11:24:19;7.17;;;1.80;;
19645;SDS011;9971;52.446;13.452;2023-02-03T11:29:28;5.40;;;1.83;;
19645;SDS011;9971;52.446;13.452;2023-02-03T11:34:30;3.37;;;1.77;;
19645;SDS011;9971;52.446;13.452;2023-02-03T11:39:31;3.35;;;1.70;;
19645;SDS011;9971;52.446;13.452;2023-02-03T11:44:34;6.55;;;2.30;;
19645;SDS011;9971;52.446;13.452;2023-02-03T11:49:45;7.53;;;2.15;;
19645;SDS011;9971;52.446;13.452;2023-02-03T11:54:52;9.53;;;2.67;;
19645;SDS011;9971;52.446;13.452;2023-02-03T11:59:59;9.33;;;3.10;;
19645;SDS011;9971;52.446;13.452;2023-02-03T12:05:20;7.50;;;2.47;;
19645;SDS011;9971;52.446;13.452;2023-02-03T12:11:08;10.58;;;3.35;;
19645;SDS011;9971;52.446;13.452;2023-02-03T12:26:34;10.10;;;2.70;;
19645;SDS011;9971;52.446;13.452;2023-02-03T12:31:44;7.57;;;2.90;;
19645;SDS011;9971;52.446;13.452;2023-02-03T12:36:48;11.00;;;2.63;;
19645;SDS011;9971;52.446;13.452;2023-02-03T12:41:54;14.03;;;3.47;;
19645;SDS011;9971;52.446;13.452;2023-02-03T12:46:56;12.78;;;3.40;;
19645;SDS011;9971;52.446;13.452;2023-02-03T12:52:04;10.10;;;3.27;;
19645;SDS011;9971;52.446;13.452;2023-02-03T12:57:09;12.20;;;3.23;;
19645;SDS011;9971;52.446;13.452;2023-02-03T13:02:15;11.83;;;3.40;;
19645;SDS011;9971;52.446;13.452;2023-02-03T13:12:40;4.87;;;1.63;;
19645;SDS011;9971;52.446;13.452;2023-02-03T13:22:50;6.85;;;2.35;;
19645;SDS011;9971;52.446;13.452;2023-02-03T13:28:07;6.73;;;2.13;;
19645;SDS011;9971;52.446;13.452;2023-02-03T13:38:49;7.43;;;2.40;;
19645;SDS011;9971;52.446;13.452;2023-02-03T13:43:51;6.50;;;2.00;;
19645;SDS011;9971;52.446;13.452;2023-02-03T13:48:54;8.80;;;2.60;;
19645;SDS011;9971;52.446;13.452;2023-02-03T13:53:57;4.90;;;2.23;;
19645;SDS011;9971;52.446;13.452;2023-02-03T13:59:00;11.28;;;2.75;;
19645;SDS011;9971;52.446;13.452;2023-02-03T14:04:02;11.73;;;3.37;;
19645;SDS011;9971;52.446;13.452;2023-02-03T14:09:40;10.20;;;3.40;;
19645;SDS011;9971;52.446;13.452;2023-02-03T14:14:39;11.30;;;3.13;;
19645;SDS011;9971;52.446;13.452;2023-02-03T14:24:54;14.43;;;4.27;;
19645;SDS011;9971;52.446;13.452;2023-02-03T14:30:03;11.00;;;3.93;;
19645;SDS011;9971;52.446;13.452;2023-02-03T14:35:14;11.23;;;3.63;;
19645;SDS011;9971;52.446;13.452;2023-02-03T14:40:27;11.23;;;4.10;;
19645;SDS011;9971;52.446;13.452;2023-02-03T14:51:01;9.53;;;3.40;;
19645;SDS011;9971;52.446;13.452;2023-02-03T14:56:10;12.40;;;3.58;;
19645;SDS011;9971;52.446;13.452;2023-02-03T15:01:25;15.13;;;4.05;;
19645;SDS011;9971;52.446;13.452;2023-02-03T15:11:42;16.17;;;4.33;;
19645;SDS011;9971;52.446;13.452;2023-02-03T15:16:49;11.37;;;3.90;;
19645;SDS011;9971;52.446;13.452;2023-02-03T15:21:49;10.53;;;3.30;;
19645;SDS011;9971;52.446;13.452;2023-02-03T15:26:53;16.30;;;3.87;;
19645;SDS011;9971;52.446;13.452;2023-02-03T15:31:56;10.77;;;3.40;;
19645;SDS011;9971;52.446;13.452;2023-02-03T15:36:57;11.00;;;3.00;;
19645;SDS011;9971;52.446;13.452;2023-02-03T15:41:58;14.40;;;4.33;;
19645;SDS011;9971;52.446;13.452;2023-02-03T15:47:01;11.33;;;3.23;;
19645;SDS011;9971;52.446;13.452;2023-02-03T15:52:06;13.67;;;4.13;;
19645;SDS011;9971;52.446;13.452;2023-02-03T15:57:09;15.63;;;4.67;;
19645;SDS011;9971;52.446;13.452;2023-02-03T16:02:30;13.23;;;3.87;;
19645;SDS011;9971;52.446;13.452;2023-02-03T16:07:31;8.57;;;3.13;;
19645;SDS011;9971;52.446;13.452;2023-02-03T16:12:33;8.13;;;2.83;;
19645;SDS011;9971;52.446;13.452;2023-02-03T16:17:35;12.43;;;3.83;;
19645;SDS011;9971;52.446;13.452;2023-02-03T16:22:38;11.50;;;3.50;;
19645;SDS011;9971;52.446;13.452;2023-02-03T16:27:42;12.35;;;3.70;;
19645;SDS011;9971;52.446;13.452;2023-02-03T16:32:42;11.97;;;3.60;;
19645;SDS011;9971;52.446;13.452;2023-02-03T16:37:50;10.40;;;3.22;;
19645;SDS011;9971;52.446;13.452;2023-02-03T16:42:58;12.07;;;3.63;;
19645;SDS011;9971;52.446;13.452;2023-02-03T16:48:08;12.20;;;3.77;;
19645;SDS011;9971;52.446;13.452;2023-02-03T16:53:15;13.17;;;3.83;;
19645;SDS011;9971;52.446;13.452;2023-02-03T16:58:17;14.93;;;3.85;;
19645;SDS011;9971;52.446;13.452;2023-02-03T17:03:19;12.63;;;3.77;;
19645;SDS011;9971;52.446;13.452;2023-02-03T17:08:22;11.12;;;3.85;;
19645;SDS011;9971;52.446;13.452;2023-02-03T17:13:23;8.33;;;3.20;;
19645;SDS011;9971;52.446;13.452;2023-02-03T17:18:26;12.45;;;4.22;;
19645;SDS011;9971;52.446;13.452;2023-02-03T17:23:28;14.20;;;3.95;;
19645;SDS011;9971;52.446;13.452;2023-02-03T17:28:30;10.98;;;3.65;;
19645;SDS011;9971;52.446;13.452;2023-02-03T17:33:33;11.97;;;3.67;;
19645;SDS011;9971;52.446;13.452;2023-02-03T17:38:36;11.73;;;3.40;;
19645;SDS011;9971;52.446;13.452;2023-02-03T17:43:38;12.97;;;3.50;;
19645;SDS011;9971;52.446;13.452;2023-02-03T17:48:40;12.90;;;3.90;;
19645;SDS011;9971;52.446;13.452;2023-02-03T17:53:43;15.00;;;3.85;;
19645;SDS011;9971;52.446;13.452;2023-02-03T17:58:45;14.80;;;5.60;;
19645;SDS011;9971;52.446;13.452;2023-02-03T18:03:47;13.83;;;3.67;;
19645;SDS011;9971;52.446;13.452;2023-02-03T18:08:49;13.73;;;4.47;;
19645;SDS011;9971;52.446;13.452;2023-02-03T18:13:51;11.50;;;3.80;;
19645;SDS011;9971;52.446;13.452;2023-02-03T18:18:54;11.83;;;3.57;;
19645;SDS011;9971;52.446;13.452;2023-02-03T18:23:55;13.20;;;3.90;;
19645;SDS011;9971;52.446;13.452;2023-02-03T18:28:57;13.75;;;3.75;;
19645;SDS011;9971;52.446;13.452;2023-02-03T18:34:00;12.67;;;3.90;;
19645;SDS011;9971;52.446;13.452;2023-02-03T18:39:02;10.40;;;3.43;;
19645;SDS011;9971;52.446;13.452;2023-02-03T18:44:04;7.62;;;3.20;;
19645;SDS011;9971;52.446;13.452;2023-02-03T18:49:06;14.15;;;3.83;;
19645;SDS011;9971;52.446;13.452;2023-02-03T18:54:08;14.20;;;4.20;;
19645;SDS011;9971;52.446;13.452;2023-02-03T18:59:10;9.63;;;2.83;;
19645;SDS011;9971;52.446;13.452;2023-02-03T19:04:13;11.57;;;3.37;;
19645;SDS011;9971;52.446;13.452;2023-02-03T19:09:15;11.73;;;3.45;;
19645;SDS011;9971;52.446;13.452;2023-02-03T19:14:17;12.00;;;3.47;;
19645;SDS011;9971;52.446;13.452;2023-02-03T19:19:20;14.53;;;2.95;;
19645;SDS011;9971;52.446;13.452;2023-02-03T19:24:22;12.33;;;3.83;;
19645;SDS011;9971;52.446;13.452;2023-02-03T19:29:24;8.85;;;3.67;;
19645;SDS011;9971;52.446;13.452;2023-02-03T19:34:27;10.78;;;3.72;;
19645;SDS011;9971;52.446;13.452;2023-02-03T19:39:29;9.27;;;3.40;;
19645;SDS011;9971;52.446;13.452;2023-02-03T19:44:31;7.37;;;2.45;;
19645;SDS011;9971;52.446;13.452;2023-02-03T19:49:34;7.00;;;2.47;;
19645;SDS011;9971;52.446;13.452;2023-02-03T19:54:36;7.62;;;2.65;;
19645;SDS011;9971;52.446;13.452;2023-02-03T19:59:38;6.95;;;2.47;;
19645;SDS011;9971;52.446;13.452;2023-02-03T20:04:41;6.87;;;2.33;;
19645;SDS011;9971;52.446;13.452;2023-02-03T20:09:43;6.97;;;2.70;;
19645;SDS011;9971;52.446;13.452;2023-02-03T20:14:45;6.17;;;2.15;;
19645;SDS011;9971;52.446;13.452;2023-02-03T20:19:47;7.70;;;2.85;;
19645;SDS011;9971;52.446;13.452;2023-02-03T20:24:50;6.87;;;2.35;;
19645;SDS011;9971;52.446;13.452;2023-02-03T20:29:52;6.45;;;2.20;;
19645;SDS011;9971;52.446;13.452;2023-02-03T20:34:55;4.85;;;1.82;;
19645;SDS011;9971;52.446;13.452;2023-02-03T20:39:57;4.97;;;1.57;;
19645;SDS011;9971;52.446;13.452;2023-02-03T20:44:59;2.90;;;1.37;;
19645;SDS011;9971;52.446;13.452;2023-02-03T20:50:01;4.80;;;1.62;;
19645;SDS011;9971;52.446;13.452;2023-02-03T20:55:09;3.03;;;1.53;;
19645;SDS011;9971;52.446;13.452;2023-02-03T21:00:13;4.33;;;1.70;;
19645;SDS011;9971;52.446;13.452;2023-02-03T21:10:23;3.23;;;1.20;;
19645;SDS011;9971;52.446;13.452;2023-02-03T21:15:26;3.87;;;1.40;;
19645;SDS011;9971;52.446;13.452;2023-02-03T21:20:28;2.90;;;0.90;;
19645;SDS011;9971;52.446;13.452;2023-02-03T21:25:30;1.00;;;0.60;;
19645;SDS011;9971;52.446;13.452;2023-02-03T21:30:31;1.07;;;0.70;;
19645;SDS011;9971;52.446;13.452;2023-02-03T21:35:34;0.90;;;0.57;;
19645;SDS011;9971;52.446;13.452;2023-02-03T21:40:36;1.10;;;0.57;;
19645;SDS011;9971;52.446;13.452;2023-02-03T21:45:40;2.10;;;0.68;;
19645;SDS011;9971;52.446;13.452;2023-02-03T21:50:41;0.93;;;0.83;;
19645;SDS011;9971;52.446;13.452;2023-02-03T21:55:44;0.30;;;0.30;;
19645;SDS011;9971;52.446;13.452;2023-02-03T22:00:47;1.07;;;0.68;;
19645;SDS011;9971;52.446;13.452;2023-02-03T22:05:49;0.88;;;0.42;;
19645;SDS011;9971;52.446;13.452;2023-02-03T22:10:51;0.70;;;0.47;;
19645;SDS011;9971;52.446;13.452;2023-02-03T22:15:53;0.98;;;0.57;;
19645;SDS011;9971;52.446;13.452;2023-02-03T22:20:55;0.63;;;0.63;;
19645;SDS011;9971;52.446;13.452;2023-02-03T22:25:57;1.93;;;0.50;;
19645;SDS011;9971;52.446;13.452;2023-02-03T22:30:59;1.40;;;0.60;;
19645;SDS011;9971;52.446;13.452;2023-02-03T22:36:02;1.00;;;0.60;;
19645;SDS011;9971;52.446;13.452;2023-02-03T22:41:04;0.80;;;0.63;;
19645;SDS011;9971;52.446;13.452;2023-02-03T22:46:06;0.62;;;0.62;;
19645;SDS011;9971;52.446;13.452;2023-02-03T22:51:08;2.37;;;0.80;;
19645;SDS011;9971;52.446;13.452;2023-02-03T22:56:10;0.70;;;0.70;;
19645;SDS011;9971;52.446;13.452;2023-02-03T23:01:13;1.60;;;0.80;;
19645;SDS011;9971;52.446;13.452;2023-02-03T23:06:15;1.27;;;0.78;;
19645;SDS011;9971;52.446;13.452;2023-02-03T23:11:18;0.75;;;0.75;;
19645;SDS011;9971;52.446;13.452;2023-02-03T23:16:20;0.70;;;0.70;;
19645;SDS011;9971;52.446;13.452;2023-02-03T23:21:23;1.15;;;0.70;;
19645;SDS011;9971;52.446;13.452;2023-02-03T23:26:25;1.20;;;0.78;;
19645;SDS011;9971;52.446;13.452;2023-02-03T23:31:28;1.27;;;0.80;;
19645;SDS011;9971;52.446;13.452;2023-02-03T23:36:31;1.10;;;0.90;;
19645;SDS011;9971;52.446;13.452;2023-02-03T23:41:33;0.70;;;0.70;;
19645;SDS011;9971;52.446;13.452;2023-02-03T23:46:35;1.10;;;0.90;;
19645;SDS011;9971;52.446;13.452;2023-02-03T23:51:37;1.12;;;1.02;;
19645;SDS011;9971;52.446;13.452;2023-02-03T23:56:40;1.32;;;0.93;;
